sensor_id;sensor_type;location;lat;lon;timestamp;temperature;humidity
35593;DHT22;64447;52.140;5.602;2022-12-18T00:00:26;0.10;84.80
35593;DHT22;64447;52.140;5.602;2022-12-18T00:02:52;0.00;84.90
35593;DHT22;64447;52.140;5.602;2022-12-18T00:05:18;0.00;85.20
35593;DHT22;64447;52.140;5.602;2022-12-18T00:07:43;-0.10;85.70
35593;DHT22;64447;52.140;5.602;2022-12-18T00:13:31;-0.10;85.60
35593;DHT22;64447;52.140;5.602;2022-12-18T00:16:02;-0.20;84.70
35593;DHT22;64447;52.140;5.602;2022-12-18T00:18:28;-0.20;86.30
35593;DHT22;64447;52.140;5.602;2022-12-18T00:20:54;-0.20;85.40
35593;DHT22;64447;52.140;5.602;2022-12-18T00:23:23;-0.30;85.50
35593;DHT22;64447;52.140;5.602;2022-12-18T00:25:48;-0.40;86.80
35593;DHT22;64447;52.140;5.602;2022-12-18T00:28:14;-0.60;87.00
35593;DHT22;64447;52.140;5.602;2022-12-18T00:30:40;-0.60;87.10
35593;DHT22;64447;52.140;5.602;2022-12-18T00:33:05;-0.50;86.80
35593;DHT22;64447;52.140;5.602;2022-12-18T00:35:31;-0.60;86.80
35593;DHT22;64447;52.140;5.602;2022-12-18T00:37:57;-0.60;86.90
35593;DHT22;64447;52.140;5.602;2022-12-18T00:43:44;-0.60;87.20
35593;DHT22;64447;52.140;5.602;2022-12-18T00:46:10;-0.60;86.90
35593;DHT22;64447;52.140;5.602;2022-12-18T00:48:35;-0.60;87.00
35593;DHT22;64447;52.140;5.602;2022-12-18T00:51:01;-0.50;86.40
35593;DHT22;64447;52.140;5.602;2022-12-18T00:59:51;-0.20;85.20
35593;DHT22;64447;52.140;5.602;2022-12-18T01:02:17;-0.10;84.70
35593;DHT22;64447;52.140;5.602;2022-12-18T01:04:42;-0.20;84.40
35593;DHT22;64447;52.140;5.602;2022-12-18T01:07:08;-0.20;84.30
35593;DHT22;64447;52.140;5.602;2022-12-18T01:09:33;-0.10;83.80
35593;DHT22;64447;52.140;5.602;2022-12-18T01:12:00;-0.20;83.40
35593;DHT22;64447;52.140;5.602;2022-12-18T01:14:25;-0.20;83.40
35593;DHT22;64447;52.140;5.602;2022-12-18T01:16:51;-0.20;83.40
35593;DHT22;64447;52.140;5.602;2022-12-18T01:19:16;-0.10;83.00
35593;DHT22;64447;52.140;5.602;2022-12-18T01:21:42;-0.10;82.70
35593;DHT22;64447;52.140;5.602;2022-12-18T01:24:07;0.00;82.20
35593;DHT22;64447;52.140;5.602;2022-12-18T01:26:33;0.00;82.00
35593;DHT22;64447;52.140;5.602;2022-12-18T01:28:58;0.00;81.60
35593;DHT22;64447;52.140;5.602;2022-12-18T01:31:27;-0.10;81.70
35593;DHT22;64447;52.140;5.602;2022-12-18T01:33:53;-0.10;81.80
35593;DHT22;64447;52.140;5.602;2022-12-18T01:36:21;-0.10;81.50
35593;DHT22;64447;52.140;5.602;2022-12-18T01:38:47;0.00;81.10
35593;DHT22;64447;52.140;5.602;2022-12-18T01:41:17;0.00;81.00
35593;DHT22;64447;52.140;5.602;2022-12-18T01:43:53;0.10;80.70
35593;DHT22;64447;52.140;5.602;2022-12-18T01:46:21;0.10;80.20
35593;DHT22;64447;52.140;5.602;2022-12-18T01:48:49;0.10;80.10
35593;DHT22;64447;52.140;5.602;2022-12-18T01:51:15;0.10;80.00
35593;DHT22;64447;52.140;5.602;2022-12-18T01:53:42;0.10;80.00
35593;DHT22;64447;52.140;5.602;2022-12-18T01:59:32;0.00;79.70
35593;DHT22;64447;52.140;5.602;2022-12-18T02:01:59;0.00;79.50
35593;DHT22;64447;52.140;5.602;2022-12-18T02:04:26;0.00;79.20
35593;DHT22;64447;52.140;5.602;2022-12-18T02:07:25;-0.10;79.00
35593;DHT22;64447;52.140;5.602;2022-12-18T02:10:20;-0.10;78.60
35593;DHT22;64447;52.140;5.602;2022-12-18T02:12:58;-0.10;78.30
35593;DHT22;64447;52.140;5.602;2022-12-18T02:15:39;-0.20;78.70
35593;DHT22;64447;52.140;5.602;2022-12-18T02:18:19;-0.20;78.80
35593;DHT22;64447;52.140;5.602;2022-12-18T02:20:55;-0.20;78.80
35593;DHT22;64447;52.140;5.602;2022-12-18T02:23:52;-0.40;78.40
35593;DHT22;64447;52.140;5.602;2022-12-18T02:26:28;-0.30;78.10
35593;DHT22;64447;52.140;5.602;2022-12-18T02:29:00;-0.40;77.50
35593;DHT22;64447;52.140;5.602;2022-12-18T02:31:34;-0.50;77.60
35593;DHT22;64447;52.140;5.602;2022-12-18T02:34:03;-0.40;77.90
35593;DHT22;64447;52.140;5.602;2022-12-18T02:36:31;-0.60;77.60
35593;DHT22;64447;52.140;5.602;2022-12-18T02:38:58;-0.60;77.80
35593;DHT22;64447;52.140;5.602;2022-12-18T02:41:25;-0.70;77.90
35593;DHT22;64447;52.140;5.602;2022-12-18T02:44:12;-0.60;77.70
35593;DHT22;64447;52.140;5.602;2022-12-18T02:46:42;-0.70;77.80
35593;DHT22;64447;52.140;5.602;2022-12-18T02:52:05;-0.70;78.10
35593;DHT22;64447;52.140;5.602;2022-12-18T03:00:58;-0.70;78.20
35593;DHT22;64447;52.140;5.602;2022-12-18T03:03:40;-0.70;78.20
35593;DHT22;64447;52.140;5.602;2022-12-18T03:06:27;-0.50;85.50
35593;DHT22;64447;52.140;5.602;2022-12-18T03:09:06;-0.70;86.30
35593;DHT22;64447;52.140;5.602;2022-12-18T03:17:39;-0.60;86.70
35593;DHT22;64447;52.140;5.602;2022-12-18T03:20:10;-0.80;90.70
35593;DHT22;64447;52.140;5.602;2022-12-18T03:22:38;-0.90;90.10
35593;DHT22;64447;52.140;5.602;2022-12-18T03:25:08;-0.80;89.80
35593;DHT22;64447;52.140;5.602;2022-12-18T03:27:38;-0.80;89.80
35593;DHT22;64447;52.140;5.602;2022-12-18T03:30:08;-0.80;91.00
35593;DHT22;64447;52.140;5.602;2022-12-18T03:33:00;-0.80;90.40
35593;DHT22;64447;52.140;5.602;2022-12-18T03:35:30;-1.00;77.60
35593;DHT22;64447;52.140;5.602;2022-12-18T03:37:58;-1.10;77.30
35593;DHT22;64447;52.140;5.602;2022-12-18T03:40:50;-1.10;77.20
35593;DHT22;64447;52.140;5.602;2022-12-18T03:46:28;-1.20;77.10
35593;DHT22;64447;52.140;5.602;2022-12-18T03:52:20;-1.20;76.80
35593;DHT22;64447;52.140;5.602;2022-12-18T04:01:16;-1.30;76.50
35593;DHT22;64447;52.140;5.602;2022-12-18T04:03:44;-1.30;76.80
35593;DHT22;64447;52.140;5.602;2022-12-18T04:06:12;-1.30;76.90
35593;DHT22;64447;52.140;5.602;2022-12-18T04:08:39;-1.30;76.50
35593;DHT22;64447;52.140;5.602;2022-12-18T04:14:27;-1.40;76.80
35593;DHT22;64447;52.140;5.602;2022-12-18T04:16:52;-1.50;77.00
35593;DHT22;64447;52.140;5.602;2022-12-18T04:19:18;-1.50;76.70
35593;DHT22;64447;52.140;5.602;2022-12-18T04:21:43;-1.50;77.00
35593;DHT22;64447;52.140;5.602;2022-12-18T04:24:09;-1.50;77.30
35593;DHT22;64447;52.140;5.602;2022-12-18T04:29:56;-1.50;76.90
35593;DHT22;64447;52.140;5.602;2022-12-18T04:32:22;-1.50;77.00
35593;DHT22;64447;52.140;5.602;2022-12-18T04:34:48;-1.50;77.30
35593;DHT22;64447;52.140;5.602;2022-12-18T04:37:13;-1.50;77.40
35593;DHT22;64447;52.140;5.602;2022-12-18T04:39:39;-1.60;77.80
35593;DHT22;64447;52.140;5.602;2022-12-18T04:45:27;-1.70;77.70
35593;DHT22;64447;52.140;5.602;2022-12-18T04:47:52;-1.70;77.50
35593;DHT22;64447;52.140;5.602;2022-12-18T04:50:18;-1.70;77.40
35593;DHT22;64447;52.140;5.602;2022-12-18T04:52:44;-1.70;78.30
35593;DHT22;64447;52.140;5.602;2022-12-18T04:55:09;-1.70;77.60
35593;DHT22;64447;52.140;5.602;2022-12-18T04:57:35;-1.70;77.50
35593;DHT22;64447;52.140;5.602;2022-12-18T05:00:01;-1.60;77.40
35593;DHT22;64447;52.140;5.602;2022-12-18T05:02:26;-1.60;77.00
35593;DHT22;64447;52.140;5.602;2022-12-18T05:04:52;-1.70;76.90
35593;DHT22;64447;52.140;5.602;2022-12-18T05:07:17;-1.70;76.60
35593;DHT22;64447;52.140;5.602;2022-12-18T05:09:43;-1.70;76.90
35593;DHT22;64447;52.140;5.602;2022-12-18T05:15:32;-1.80;76.60
35593;DHT22;64447;52.140;5.602;2022-12-18T05:17:58;-1.70;80.90
35593;DHT22;64447;52.140;5.602;2022-12-18T05:20:24;-1.70;79.60
35593;DHT22;64447;52.140;5.602;2022-12-18T05:22:51;-1.70;79.70
35593;DHT22;64447;52.140;5.602;2022-12-18T05:25:17;-1.70;79.30
35593;DHT22;64447;52.140;5.602;2022-12-18T05:27:43;-1.80;91.30
35593;DHT22;64447;52.140;5.602;2022-12-18T05:30:10;-1.90;91.10
35593;DHT22;64447;52.140;5.602;2022-12-18T05:32:36;-1.90;78.80
35593;DHT22;64447;52.140;5.602;2022-12-18T05:35:01;-1.90;77.40
35593;DHT22;64447;52.140;5.602;2022-12-18T05:39:53;-2.10;75.90
35593;DHT22;64447;52.140;5.602;2022-12-18T05:45:41;-2.10;76.50
35593;DHT22;64447;52.140;5.602;2022-12-18T05:48:07;-2.10;76.30
35593;DHT22;64447;52.140;5.602;2022-12-18T05:50:35;-2.10;76.40
35593;DHT22;64447;52.140;5.602;2022-12-18T05:53:01;-2.00;77.40
35593;DHT22;64447;52.140;5.602;2022-12-18T05:55:27;-2.10;78.70
35593;DHT22;64447;52.140;5.602;2022-12-18T05:57:52;-2.20;79.40
35593;DHT22;64447;52.140;5.602;2022-12-18T06:00:18;-2.10;79.90
35593;DHT22;64447;52.140;5.602;2022-12-18T06:02:47;-2.10;79.90
35593;DHT22;64447;52.140;5.602;2022-12-18T06:05:12;-2.10;79.70
35593;DHT22;64447;52.140;5.602;2022-12-18T06:07:38;-2.00;79.60
35593;DHT22;64447;52.140;5.602;2022-12-18T06:10:04;-2.00;79.60
35593;DHT22;64447;52.140;5.602;2022-12-18T06:15:51;-2.50;80.80
35593;DHT22;64447;52.140;5.602;2022-12-18T06:18:17;-2.40;80.50
35593;DHT22;64447;52.140;5.602;2022-12-18T06:20:43;-1.00;80.80
35593;DHT22;64447;52.140;5.602;2022-12-18T06:23:08;-2.30;79.40
35593;DHT22;64447;52.140;5.602;2022-12-18T06:25:37;-2.20;79.30
35593;DHT22;64447;52.140;5.602;2022-12-18T06:28:03;-2.20;79.00
35593;DHT22;64447;52.140;5.602;2022-12-18T06:30:29;-2.10;78.40
35593;DHT22;64447;52.140;5.602;2022-12-18T06:32:54;-2.10;78.20
35593;DHT22;64447;52.140;5.602;2022-12-18T06:35:20;-2.10;77.80
35593;DHT22;64447;52.140;5.602;2022-12-18T06:37:45;-2.10;78.10
35593;DHT22;64447;52.140;5.602;2022-12-18T06:40:11;-2.10;78.40
35593;DHT22;64447;52.140;5.602;2022-12-18T06:46:02;-2.00;78.40
35593;DHT22;64447;52.140;5.602;2022-12-18T06:48:29;-2.10;78.40
35593;DHT22;64447;52.140;5.602;2022-12-18T06:50:54;-2.10;78.30
35593;DHT22;64447;52.140;5.602;2022-12-18T06:53:20;-2.10;77.60
35593;DHT22;64447;52.140;5.602;2022-12-18T06:55:46;-2.10;77.50
35593;DHT22;64447;52.140;5.602;2022-12-18T06:58:11;-2.10;77.70
35593;DHT22;64447;52.140;5.602;2022-12-18T07:00:37;-2.20;77.70
35593;DHT22;64447;52.140;5.602;2022-12-18T07:03:02;-2.10;77.90
35593;DHT22;64447;52.140;5.602;2022-12-18T07:05:28;-2.10;77.90
35593;DHT22;64447;52.140;5.602;2022-12-18T07:07:54;-2.10;77.80
35593;DHT22;64447;52.140;5.602;2022-12-18T07:10:19;-2.20;77.60
35593;DHT22;64447;52.140;5.602;2022-12-18T07:16:09;-2.20;78.00
35593;DHT22;64447;52.140;5.602;2022-12-18T07:18:35;-2.10;78.30
35593;DHT22;64447;52.140;5.602;2022-12-18T07:21:05;-2.10;78.50
35593;DHT22;64447;52.140;5.602;2022-12-18T07:23:32;-2.00;78.80
35593;DHT22;64447;52.140;5.602;2022-12-18T07:26:06;-2.20;79.40
35593;DHT22;64447;52.140;5.602;2022-12-18T07:28:33;-2.40;80.10
35593;DHT22;64447;52.140;5.602;2022-12-18T07:31:13;-2.40;81.00
35593;DHT22;64447;52.140;5.602;2022-12-18T07:33:38;-2.30;80.50
35593;DHT22;64447;52.140;5.602;2022-12-18T07:36:06;-2.50;80.80
35593;DHT22;64447;52.140;5.602;2022-12-18T07:38:33;-2.70;81.60
35593;DHT22;64447;52.140;5.602;2022-12-18T07:41:03;-2.80;81.20
35593;DHT22;64447;52.140;5.602;2022-12-18T11:06:14;-0.20;80.40
35593;DHT22;64447;52.140;5.602;2022-12-18T11:08:42;-0.20;81.00
35593;DHT22;64447;52.140;5.602;2022-12-18T11:11:22;0.00;81.00
35593;DHT22;64447;52.140;5.602;2022-12-18T11:14:25;0.10;80.40
35593;DHT22;64447;52.140;5.602;2022-12-18T11:16:52;0.10;80.50
35593;DHT22;64447;52.140;5.602;2022-12-18T11:19:38;0.00;80.30
35593;DHT22;64447;52.140;5.602;2022-12-18T11:22:27;0.10;80.30
35593;DHT22;64447;52.140;5.602;2022-12-18T11:24:56;0.10;80.30
35593;DHT22;64447;52.140;5.602;2022-12-18T11:30:44;0.30;79.40
35593;DHT22;64447;52.140;5.602;2022-12-18T11:33:20;0.30;79.30
35593;DHT22;64447;52.140;5.602;2022-12-18T11:35:52;0.40;79.00
35593;DHT22;64447;52.140;5.602;2022-12-18T11:38:37;0.40;78.90
35593;DHT22;64447;52.140;5.602;2022-12-18T11:47:57;0.60;78.70
35593;DHT22;64447;52.140;5.602;2022-12-18T11:51:14;0.60;78.80
35593;DHT22;64447;52.140;5.602;2022-12-18T11:53:12;0.50;78.80
35593;DHT22;64447;52.140;5.602;2022-12-18T11:55:59;0.60;78.90
35593;DHT22;64447;52.140;5.602;2022-12-18T12:10:05;0.70;78.30
35593;DHT22;64447;52.140;5.602;2022-12-18T12:26:23;0.70;78.00
35593;DHT22;64447;52.140;5.602;2022-12-18T12:40:39;1.10;77.70
35593;DHT22;64447;52.140;5.602;2022-12-18T12:46:05;1.00;76.70
35593;DHT22;64447;52.140;5.602;2022-12-18T12:48:44;1.00;77.30
35593;DHT22;64447;52.140;5.602;2022-12-18T12:51:28;0.90;77.40
35593;DHT22;64447;52.140;5.602;2022-12-18T12:53:56;1.00;77.60
35593;DHT22;64447;52.140;5.602;2022-12-18T12:56:22;0.90;77.70
35593;DHT22;64447;52.140;5.602;2022-12-18T12:58:55;1.00;77.50
35593;DHT22;64447;52.140;5.602;2022-12-18T13:01:36;1.00;77.30
35593;DHT22;64447;52.140;5.602;2022-12-18T13:04:15;1.10;76.70
35593;DHT22;64447;52.140;5.602;2022-12-18T13:06:56;1.10;76.70
35593;DHT22;64447;52.140;5.602;2022-12-18T13:09:24;1.00;76.60
35593;DHT22;64447;52.140;5.602;2022-12-18T13:11:50;1.30;76.80
35593;DHT22;64447;52.140;5.602;2022-12-18T13:14:39;1.10;76.40
35593;DHT22;64447;52.140;5.602;2022-12-18T13:19:51;1.20;76.60
35593;DHT22;64447;52.140;5.602;2022-12-18T13:22:22;1.10;76.20
35593;DHT22;64447;52.140;5.602;2022-12-18T13:24:48;1.00;76.20
35593;DHT22;64447;52.140;5.602;2022-12-18T13:35:42;1.30;75.90
35593;DHT22;64447;52.140;5.602;2022-12-18T13:40:58;1.40;75.50
35593;DHT22;64447;52.140;5.602;2022-12-18T13:46:47;1.50;75.00
35593;DHT22;64447;52.140;5.602;2022-12-18T13:51:42;1.70;74.90
35593;DHT22;64447;52.140;5.602;2022-12-18T13:56:46;1.90;74.20
35593;DHT22;64447;52.140;5.602;2022-12-18T14:02:34;1.70;74.30
35593;DHT22;64447;52.140;5.602;2022-12-18T14:04:59;1.80;74.20
35593;DHT22;64447;52.140;5.602;2022-12-18T14:07:27;1.80;73.90
35593;DHT22;64447;52.140;5.602;2022-12-18T14:09:55;1.70;73.60
35593;DHT22;64447;52.140;5.602;2022-12-18T14:12:24;1.70;74.30
35593;DHT22;64447;52.140;5.602;2022-12-18T14:18:57;1.80;73.90
35593;DHT22;64447;52.140;5.602;2022-12-18T14:21:28;1.50;73.90
35593;DHT22;64447;52.140;5.602;2022-12-18T14:24:20;1.50;74.60
35593;DHT22;64447;52.140;5.602;2022-12-18T14:26:47;1.60;74.70
35593;DHT22;64447;52.140;5.602;2022-12-18T14:32:35;1.60;74.50
35593;DHT22;64447;52.140;5.602;2022-12-18T14:35:13;1.60;74.10
35593;DHT22;64447;52.140;5.602;2022-12-18T14:37:38;1.60;74.20
35593;DHT22;64447;52.140;5.602;2022-12-18T14:40:04;1.50;74.10
35593;DHT22;64447;52.140;5.602;2022-12-18T14:42:30;1.50;74.50
35593;DHT22;64447;52.140;5.602;2022-12-18T14:48:21;1.30;74.60
35593;DHT22;64447;52.140;5.602;2022-12-18T14:53:37;1.40;74.60
35593;DHT22;64447;52.140;5.602;2022-12-18T14:58:58;1.40;74.30
35593;DHT22;64447;52.140;5.602;2022-12-18T15:01:30;1.20;74.20
35593;DHT22;64447;52.140;5.602;2022-12-18T15:03:58;1.20;74.90
35593;DHT22;64447;52.140;5.602;2022-12-18T15:06:32;1.30;75.00
35593;DHT22;64447;52.140;5.602;2022-12-18T15:09:00;1.30;74.90
35593;DHT22;64447;52.140;5.602;2022-12-18T15:11:32;1.30;74.80
35593;DHT22;64447;52.140;5.602;2022-12-18T15:13:59;1.20;74.20
35593;DHT22;64447;52.140;5.602;2022-12-18T15:16:26;1.20;74.90
35593;DHT22;64447;52.140;5.602;2022-12-18T15:18:52;1.30;74.60
35593;DHT22;64447;52.140;5.602;2022-12-18T15:21:19;1.10;74.90
35593;DHT22;64447;52.140;5.602;2022-12-18T15:23:52;1.20;74.80
35593;DHT22;64447;52.140;5.602;2022-12-18T15:26:20;1.20;75.00
35593;DHT22;64447;52.140;5.602;2022-12-18T15:28:51;1.20;74.70
35593;DHT22;64447;52.140;5.602;2022-12-18T15:31:32;1.20;74.80
35593;DHT22;64447;52.140;5.602;2022-12-18T15:36:28;1.20;74.60
35593;DHT22;64447;52.140;5.602;2022-12-18T15:39:02;1.30;74.70
35593;DHT22;64447;52.140;5.602;2022-12-18T15:41:28;1.30;74.90
35593;DHT22;64447;52.140;5.602;2022-12-18T15:43:56;1.30;74.60
35593;DHT22;64447;52.140;5.602;2022-12-18T15:46:23;1.30;74.60
35593;DHT22;64447;52.140;5.602;2022-12-18T15:48:51;1.20;74.80
35593;DHT22;64447;52.140;5.602;2022-12-18T15:51:28;1.30;74.60
35593;DHT22;64447;52.140;5.602;2022-12-18T15:53:56;1.20;74.90
35593;DHT22;64447;52.140;5.602;2022-12-18T15:56:23;1.10;75.00
35593;DHT22;64447;52.140;5.602;2022-12-18T15:59:13;1.20;75.40
35593;DHT22;64447;52.140;5.602;2022-12-18T16:01:40;1.30;75.30
35593;DHT22;64447;52.140;5.602;2022-12-18T16:04:06;1.20;75.20
35593;DHT22;64447;52.140;5.602;2022-12-18T16:06:32;1.20;75.40
35593;DHT22;64447;52.140;5.602;2022-12-18T16:08:57;1.10;75.20
35593;DHT22;64447;52.140;5.602;2022-12-18T16:11:28;1.10;75.30
35593;DHT22;64447;52.140;5.602;2022-12-18T16:16:51;1.20;75.40
35593;DHT22;64447;52.140;5.602;2022-12-18T16:19:17;1.10;76.30
35593;DHT22;64447;52.140;5.602;2022-12-18T16:21:43;1.20;75.40
35593;DHT22;64447;52.140;5.602;2022-12-18T16:24:34;1.20;75.60
35593;DHT22;64447;52.140;5.602;2022-12-18T16:27:01;1.20;76.00
35593;DHT22;64447;52.140;5.602;2022-12-18T16:29:28;1.30;75.30
35593;DHT22;64447;52.140;5.602;2022-12-18T16:31:55;1.20;75.50
35593;DHT22;64447;52.140;5.602;2022-12-18T16:36:50;1.30;75.30
35593;DHT22;64447;52.140;5.602;2022-12-18T16:39:16;1.20;75.30
35593;DHT22;64447;52.140;5.602;2022-12-18T16:41:42;1.20;75.20
35593;DHT22;64447;52.140;5.602;2022-12-18T16:44:08;1.10;75.40
35593;DHT22;64447;52.140;5.602;2022-12-18T16:46:34;1.10;75.70
35593;DHT22;64447;52.140;5.602;2022-12-18T16:49:00;1.10;75.90
35593;DHT22;64447;52.140;5.602;2022-12-18T16:51:26;1.00;75.90
35593;DHT22;64447;52.140;5.602;2022-12-18T16:54:02;1.00;76.20
35593;DHT22;64447;52.140;5.602;2022-12-18T16:56:28;1.20;76.00
35593;DHT22;64447;52.140;5.602;2022-12-18T16:58:59;1.20;75.90
35593;DHT22;64447;52.140;5.602;2022-12-18T17:01:26;1.30;75.60
35593;DHT22;64447;52.140;5.602;2022-12-18T17:03:53;1.20;75.20
35593;DHT22;64447;52.140;5.602;2022-12-18T17:06:22;1.20;75.20
35593;DHT22;64447;52.140;5.602;2022-12-18T17:08:49;1.20;75.30
35593;DHT22;64447;52.140;5.602;2022-12-18T17:11:19;1.30;75.30
35593;DHT22;64447;52.140;5.602;2022-12-18T17:13:44;1.40;74.90
35593;DHT22;64447;52.140;5.602;2022-12-18T17:19:32;1.30;74.50
35593;DHT22;64447;52.140;5.602;2022-12-18T17:21:57;1.20;75.10
35593;DHT22;64447;52.140;5.602;2022-12-18T17:24:23;1.30;75.30
35593;DHT22;64447;52.140;5.602;2022-12-18T17:26:49;1.30;74.80
35593;DHT22;64447;52.140;5.602;2022-12-18T17:29:18;1.30;74.90
35593;DHT22;64447;52.140;5.602;2022-12-18T17:31:45;1.30;74.60
35593;DHT22;64447;52.140;5.602;2022-12-18T17:34:10;1.30;74.80
35593;DHT22;64447;52.140;5.602;2022-12-18T17:36:37;1.20;74.70
35593;DHT22;64447;52.140;5.602;2022-12-18T17:39:03;1.20;75.10
35593;DHT22;64447;52.140;5.602;2022-12-18T17:41:30;1.20;75.10
35593;DHT22;64447;52.140;5.602;2022-12-18T17:44:01;1.30;75.20
35593;DHT22;64447;52.140;5.602;2022-12-18T17:49:49;1.30;74.60
35593;DHT22;64447;52.140;5.602;2022-12-18T17:52:16;1.20;74.90
35593;DHT22;64447;52.140;5.602;2022-12-18T17:54:41;1.20;75.00
35593;DHT22;64447;52.140;5.602;2022-12-18T17:57:08;1.10;75.40
35593;DHT22;64447;52.140;5.602;2022-12-18T17:59:34;1.10;75.40
35593;DHT22;64447;52.140;5.602;2022-12-18T18:02:00;1.10;75.80
35593;DHT22;64447;52.140;5.602;2022-12-18T18:04:25;1.20;75.80
35593;DHT22;64447;52.140;5.602;2022-12-18T18:06:51;1.20;75.70
35593;DHT22;64447;52.140;5.602;2022-12-18T18:09:16;1.20;75.90
35593;DHT22;64447;52.140;5.602;2022-12-18T18:11:43;1.10;75.60
35593;DHT22;64447;52.140;5.602;2022-12-18T18:14:27;1.20;75.80
35593;DHT22;64447;52.140;5.602;2022-12-18T18:16:53;1.30;76.50
35593;DHT22;64447;52.140;5.602;2022-12-18T18:19:21;1.30;75.60
35593;DHT22;64447;52.140;5.602;2022-12-18T18:21:48;1.30;76.00
35593;DHT22;64447;52.140;5.602;2022-12-18T18:24:16;1.30;75.70
35593;DHT22;64447;52.140;5.602;2022-12-18T18:26:42;1.10;76.00
35593;DHT22;64447;52.140;5.602;2022-12-18T18:29:10;1.10;76.30
35593;DHT22;64447;52.140;5.602;2022-12-18T18:34:59;1.10;76.60
35593;DHT22;64447;52.140;5.602;2022-12-18T18:37:24;1.30;76.90
35593;DHT22;64447;52.140;5.602;2022-12-18T18:39:50;1.20;76.70
35593;DHT22;64447;52.140;5.602;2022-12-18T18:42:15;1.20;76.60
35593;DHT22;64447;52.140;5.602;2022-12-18T18:44:41;1.20;76.60
35593;DHT22;64447;52.140;5.602;2022-12-18T18:47:07;1.30;76.20
35593;DHT22;64447;52.140;5.602;2022-12-18T18:49:32;1.30;76.10
35593;DHT22;64447;52.140;5.602;2022-12-18T18:51:58;1.30;76.50
35593;DHT22;64447;52.140;5.602;2022-12-18T18:54:24;1.30;76.50
35593;DHT22;64447;52.140;5.602;2022-12-18T18:56:50;1.30;76.60
35593;DHT22;64447;52.140;5.602;2022-12-18T18:59:16;1.30;77.00
35593;DHT22;64447;52.140;5.602;2022-12-18T19:05:04;1.40;76.30
35593;DHT22;64447;52.140;5.602;2022-12-18T19:07:30;1.40;75.80
35593;DHT22;64447;52.140;5.602;2022-12-18T19:09:55;1.40;77.20
35593;DHT22;64447;52.140;5.602;2022-12-18T19:12:21;1.40;76.80
35593;DHT22;64447;52.140;5.602;2022-12-18T19:15:06;1.40;76.80
35593;DHT22;64447;52.140;5.602;2022-12-18T19:17:31;1.30;76.80
35593;DHT22;64447;52.140;5.602;2022-12-18T19:19:58;1.30;76.80
35593;DHT22;64447;52.140;5.602;2022-12-18T19:22:23;1.40;77.10
35593;DHT22;64447;52.140;5.602;2022-12-18T19:24:49;1.40;77.40
35593;DHT22;64447;52.140;5.602;2022-12-18T19:27:14;1.40;76.30
35593;DHT22;64447;52.140;5.602;2022-12-18T19:29:40;1.40;77.30
35593;DHT22;64447;52.140;5.602;2022-12-18T19:35:28;1.40;76.50
35593;DHT22;64447;52.140;5.602;2022-12-18T19:37:54;1.50;76.70
35593;DHT22;64447;52.140;5.602;2022-12-18T19:40:19;1.50;75.70
35593;DHT22;64447;52.140;5.602;2022-12-18T19:42:45;1.60;75.90
35593;DHT22;64447;52.140;5.602;2022-12-18T19:45:10;1.70;75.70
35593;DHT22;64447;52.140;5.602;2022-12-18T19:51:19;1.80;75.50
35593;DHT22;64447;52.140;5.602;2022-12-18T19:53:45;1.80;75.30
35593;DHT22;64447;52.140;5.602;2022-12-18T19:56:14;1.70;75.20
35593;DHT22;64447;52.140;5.602;2022-12-18T19:58:39;1.70;75.60
35593;DHT22;64447;52.140;5.602;2022-12-18T20:01:06;1.70;75.70
35593;DHT22;64447;52.140;5.602;2022-12-18T20:03:34;1.70;75.80
35593;DHT22;64447;52.140;5.602;2022-12-18T20:08:57;1.70;76.00
35593;DHT22;64447;52.140;5.602;2022-12-18T20:11:23;1.70;76.20
35593;DHT22;64447;52.140;5.602;2022-12-18T20:13:48;1.80;76.60
35593;DHT22;64447;52.140;5.602;2022-12-18T20:16:14;1.80;75.80
35593;DHT22;64447;52.140;5.602;2022-12-18T20:18:40;1.90;76.00
35593;DHT22;64447;52.140;5.602;2022-12-18T20:21:05;1.90;75.80
35593;DHT22;64447;52.140;5.602;2022-12-18T20:23:31;1.90;76.10
35593;DHT22;64447;52.140;5.602;2022-12-18T20:25:57;1.80;77.40
35593;DHT22;64447;52.140;5.602;2022-12-18T20:28:23;1.80;78.90
35593;DHT22;64447;52.140;5.602;2022-12-18T20:30:49;1.80;79.60
35593;DHT22;64447;52.140;5.602;2022-12-18T20:33:15;1.90;80.90
35593;DHT22;64447;52.140;5.602;2022-12-18T20:35:41;1.90;81.40
35593;DHT22;64447;52.140;5.602;2022-12-18T20:38:06;1.80;82.70
35593;DHT22;64447;52.140;5.602;2022-12-18T20:40:32;1.70;83.90
35593;DHT22;64447;52.140;5.602;2022-12-18T20:42:58;1.70;84.50
35593;DHT22;64447;52.140;5.602;2022-12-18T20:45:24;1.60;85.00
35593;DHT22;64447;52.140;5.602;2022-12-18T20:51:14;1.70;85.70
35593;DHT22;64447;52.140;5.602;2022-12-18T20:53:40;1.70;86.60
35593;DHT22;64447;52.140;5.602;2022-12-18T20:56:13;1.60;87.20
35593;DHT22;64447;52.140;5.602;2022-12-18T20:58:39;1.50;87.40
35593;DHT22;64447;52.140;5.602;2022-12-18T21:01:16;1.50;89.00
35593;DHT22;64447;52.140;5.602;2022-12-18T21:03:42;1.40;89.50
35593;DHT22;64447;52.140;5.602;2022-12-18T21:06:09;1.40;89.70
35593;DHT22;64447;52.140;5.602;2022-12-18T21:08:35;1.60;89.80
35593;DHT22;64447;52.140;5.602;2022-12-18T21:14:11;1.50;90.10
35593;DHT22;64447;52.140;5.602;2022-12-18T21:16:37;1.40;90.10
35593;DHT22;64447;52.140;5.602;2022-12-18T21:19:04;1.40;90.60
35593;DHT22;64447;52.140;5.602;2022-12-18T21:21:30;1.30;90.80
35593;DHT22;64447;52.140;5.602;2022-12-18T21:23:55;1.40;90.80
35593;DHT22;64447;52.140;5.602;2022-12-18T21:26:23;1.40;90.80
35593;DHT22;64447;52.140;5.602;2022-12-18T21:28:53;1.40;90.90
35593;DHT22;64447;52.140;5.602;2022-12-18T21:31:20;1.30;91.20
35593;DHT22;64447;52.140;5.602;2022-12-18T21:33:46;1.30;91.30
35593;DHT22;64447;52.140;5.602;2022-12-18T21:36:12;1.20;91.40
35593;DHT22;64447;52.140;5.602;2022-12-18T21:38:37;1.20;91.70
35593;DHT22;64447;52.140;5.602;2022-12-18T21:41:07;1.30;91.80
35593;DHT22;64447;52.140;5.602;2022-12-18T21:43:33;1.40;91.90
35593;DHT22;64447;52.140;5.602;2022-12-18T21:46:19;1.40;91.70
35593;DHT22;64447;52.140;5.602;2022-12-18T21:48:45;1.40;92.00
35593;DHT22;64447;52.140;5.602;2022-12-18T21:51:10;1.50;92.00
35593;DHT22;64447;52.140;5.602;2022-12-18T21:53:36;1.40;92.20
35593;DHT22;64447;52.140;5.602;2022-12-18T21:56:02;1.40;92.20
35593;DHT22;64447;52.140;5.602;2022-12-18T21:58:27;1.40;92.40
35593;DHT22;64447;52.140;5.602;2022-12-18T22:00:53;1.40;92.60
35593;DHT22;64447;52.140;5.602;2022-12-18T22:06:41;1.50;92.80
35593;DHT22;64447;52.140;5.602;2022-12-18T22:09:08;1.40;92.80
35593;DHT22;64447;52.140;5.602;2022-12-18T22:11:34;1.40;92.80
35593;DHT22;64447;52.140;5.602;2022-12-18T22:14:00;1.40;92.80
35593;DHT22;64447;52.140;5.602;2022-12-18T22:16:26;1.40;93.00
35593;DHT22;64447;52.140;5.602;2022-12-18T22:18:52;1.50;93.10
35593;DHT22;64447;52.140;5.602;2022-12-18T22:23:57;1.50;93.10
35593;DHT22;64447;52.140;5.602;2022-12-18T22:26:24;1.50;93.20
35593;DHT22;64447;52.140;5.602;2022-12-18T22:28:50;1.50;93.20
35593;DHT22;64447;52.140;5.602;2022-12-18T22:31:35;1.50;93.30
35593;DHT22;64447;52.140;5.602;2022-12-18T22:34:01;1.50;93.60
35593;DHT22;64447;52.140;5.602;2022-12-18T22:36:27;1.40;93.60
35593;DHT22;64447;52.140;5.602;2022-12-18T22:38:53;1.40;93.60
35593;DHT22;64447;52.140;5.602;2022-12-18T22:41:19;1.50;93.70